createdAt,value
2019-02-25T00:03:59.231Z,9.50
2019-02-25T00:06:46.942Z,10.83
2019-02-25T00:09:35.577Z,11.57
2019-02-25T00:12:24.044Z,9.87
2019-02-25T00:15:12.497Z,9.33
2019-02-25T00:18:00.930Z,9.17
2019-02-25T00:20:49.116Z,11.67
2019-02-25T00:23:37.256Z,10.97
2019-02-25T00:26:25.523Z,9.67
2019-02-25T00:29:13.459Z,9.17
2019-02-25T00:32:01.337Z,8.87
2019-02-25T00:34:49.265Z,10.93
2019-02-25T00:37:37.559Z,7.03
2019-02-25T00:40:27.517Z,10.17
2019-02-25T00:43:14.865Z,9.43
2019-02-25T00:46:03.800Z,10.93
2019-02-25T00:48:51.764Z,9.73
2019-02-25T00:51:39.744Z,8.70
2019-02-25T00:54:28.327Z,12.67
2019-02-25T00:57:16.841Z,14.97
2019-02-25T01:00:04.956Z,12.37
2019-02-25T01:02:53.470Z,14.20
2019-02-25T01:05:41.379Z,12.20
2019-02-25T01:08:30.072Z,13.93
2019-02-25T01:11:17.967Z,12.37
2019-02-25T01:14:05.850Z,13.73
2019-02-25T01:16:53.745Z,11.90
2019-02-25T01:19:41.715Z,15.37
2019-02-25T01:22:29.754Z,13.37
2019-02-25T01:25:17.617Z,15.00
2019-02-25T01:28:05.472Z,11.67
2019-02-25T01:30:54.122Z,13.17
2019-02-25T01:33:42.219Z,14.73
2019-02-25T01:36:30.108Z,12.37
2019-02-25T01:39:18.265Z,9.77
2019-02-25T01:42:06.224Z,8.93
2019-02-25T01:44:54.613Z,8.97
2019-02-25T01:47:42.798Z,7.47
2019-02-25T01:50:30.996Z,11.13
2019-02-25T01:53:19.290Z,9.33
2019-02-25T01:56:07.303Z,12.10
2019-02-25T01:58:55.265Z,9.60
2019-02-25T02:01:43.130Z,9.73
2019-02-25T02:04:31.839Z,9.07
2019-02-25T02:07:19.705Z,8.53
2019-02-25T02:10:07.598Z,10.60
2019-02-25T02:12:55.783Z,11.03
2019-02-25T02:15:44.015Z,9.57
2019-02-25T02:18:32.297Z,12.80
2019-02-25T02:21:20.991Z,8.57
2019-02-25T02:24:09.035Z,9.50
2019-02-25T02:26:57.182Z,8.80
2019-02-25T02:29:45.460Z,9.10
2019-02-25T02:32:33.753Z,9.00
2019-02-25T02:35:21.813Z,10.93
2019-02-25T02:38:10.183Z,7.70
2019-02-25T02:40:58.692Z,6.90
2019-02-25T02:43:46.770Z,7.97
2019-02-25T02:46:35.157Z,8.57
2019-02-25T02:49:23.090Z,8.20
2019-02-25T02:52:10.998Z,13.97
2019-02-25T02:54:58.961Z,10.67
2019-02-25T02:57:46.940Z,6.33
2019-02-25T03:00:35.229Z,7.53
2019-02-25T03:03:23.405Z,7.97
2019-02-25T03:06:11.538Z,6.07
2019-02-25T03:08:59.938Z,8.13
2019-02-25T03:11:48.722Z,6.87
2019-02-25T03:14:37.263Z,7.70
2019-02-25T03:20:11.367Z,8.30
2019-02-25T03:22:59.926Z,8.47
2019-02-25T03:25:47.756Z,8.73
2019-02-25T03:28:35.581Z,9.40
2019-02-25T03:31:23.483Z,7.80
2019-02-25T03:34:11.531Z,9.53
2019-02-25T03:36:59.503Z,8.77
2019-02-25T03:39:47.789Z,7.70
2019-02-25T03:42:36.329Z,8.53
2019-02-25T03:45:24.968Z,8.50
2019-02-25T03:48:13.060Z,8.20
2019-02-25T03:51:01.127Z,8.60
2019-02-25T03:53:49.141Z,9.40
2019-02-25T03:56:37.630Z,7.53
2019-02-25T03:59:26.270Z,8.30
2019-02-25T04:02:14.866Z,7.63
2019-02-25T04:05:03.209Z,9.13
2019-02-25T04:07:51.646Z,8.33
2019-02-25T04:10:39.598Z,8.17
2019-02-25T04:13:28.214Z,9.60
2019-02-25T04:16:16.748Z,6.60
2019-02-25T04:19:05.288Z,12.77
2019-02-25T04:21:53.256Z,7.13
2019-02-25T04:24:41.611Z,7.27
2019-02-25T04:27:30.054Z,6.63
2019-02-25T04:30:18.392Z,8.73
2019-02-25T04:33:06.480Z,7.67
2019-02-25T04:35:54.519Z,9.73
2019-02-25T04:38:42.643Z,11.50
2019-02-25T04:41:30.779Z,6.37
2019-02-25T04:44:19.005Z,9.00
2019-02-25T04:47:07.019Z,8.10
2019-02-25T04:49:55.477Z,8.33
2019-02-25T04:52:43.722Z,6.83
2019-02-25T04:55:31.865Z,8.10
2019-02-25T04:58:19.778Z,11.43
2019-02-25T05:01:07.795Z,8.37
2019-02-25T05:03:55.739Z,9.67
2019-02-25T05:06:43.677Z,8.17
2019-02-25T05:09:31.852Z,8.77
2019-02-25T05:12:20.094Z,9.70
2019-02-25T05:15:08.205Z,9.33
2019-02-25T05:17:56.079Z,9.20
2019-02-25T05:20:44.054Z,7.93
2019-02-25T05:23:32.730Z,7.63
2019-02-25T05:26:20.902Z,8.90
2019-02-25T05:29:09.188Z,7.20
2019-02-25T05:31:57.303Z,7.43
2019-02-25T05:34:45.090Z,9.93
2019-02-25T05:37:33.304Z,8.60
2019-02-25T05:40:21.546Z,7.80
2019-02-25T05:43:10.059Z,9.20
2019-02-25T05:45:57.692Z,7.07
2019-02-25T05:48:46.280Z,7.60
2019-02-25T05:51:34.612Z,8.20
2019-02-25T05:54:23.288Z,7.73
2019-02-25T05:57:11.159Z,8.53
2019-02-25T05:59:59.392Z,7.57
2019-02-25T06:02:47.375Z,7.77
2019-02-25T06:05:35.935Z,8.30
2019-02-25T06:08:23.754Z,9.87
2019-02-25T06:11:11.419Z,8.10
2019-02-25T06:14:00.359Z,11.33
2019-02-25T06:16:48.295Z,10.50
2019-02-25T06:19:37.022Z,8.73
2019-02-25T06:22:25.259Z,11.93
2019-02-25T06:25:13.442Z,12.53
2019-02-25T06:28:02.203Z,12.10
2019-02-25T06:30:50.065Z,14.70
2019-02-25T06:33:37.855Z,12.93
2019-02-25T06:36:25.888Z,14.63
2019-02-25T06:39:14.576Z,14.33
2019-02-25T06:42:02.589Z,11.97
2019-02-25T06:44:50.878Z,11.20
2019-02-25T06:47:39.172Z,10.07
2019-02-25T06:50:27.012Z,9.00
2019-02-25T06:53:15.348Z,12.83
2019-02-25T06:56:05.828Z,10.60
2019-02-25T06:58:54.436Z,11.20
2019-02-25T07:01:42.493Z,9.57
2019-02-25T07:04:49.873Z,13.93
2019-02-25T07:11:03.330Z,11.70
2019-02-25T07:14:16.623Z,11.43
2019-02-25T07:17:27.067Z,11.77
2019-02-25T07:23:35.173Z,17.97
2019-02-25T07:26:30.278Z,13.23
2019-02-25T07:32:51.426Z,15.13
2019-02-25T07:35:51.820Z,12.80
2019-02-25T07:38:55.943Z,11.20
2019-02-25T07:48:39.170Z,11.47
2019-02-25T07:51:49.614Z,17.30
2019-02-25T08:00:48.806Z,11.33
2019-02-25T08:10:24.069Z,9.97
2019-02-25T08:19:55.231Z,8.90
2019-02-25T08:26:29.882Z,8.90
2019-02-25T08:29:37.279Z,9.43
2019-02-25T08:32:37.046Z,6.93
2019-02-25T08:35:43.975Z,7.33
2019-02-25T08:42:01.540Z,6.87
2019-02-25T08:45:08.990Z,7.20
2019-02-25T08:51:21.103Z,5.70
2019-02-25T08:54:09.399Z,7.17
2019-02-25T08:56:57.759Z,6.50
2019-02-25T09:02:31.308Z,13.40
2019-02-25T09:05:19.984Z,12.70
2019-02-25T09:08:08.534Z,9.10
2019-02-25T09:10:57.091Z,9.93
2019-02-25T09:13:44.920Z,8.40
2019-02-25T09:16:32.991Z,8.00
2019-02-25T09:19:21.140Z,8.73
2019-02-25T09:22:09.220Z,11.33
2019-02-25T09:24:57.352Z,11.70
2019-02-25T09:27:45.088Z,8.70
2019-02-25T09:30:33.222Z,8.93
2019-02-25T09:33:21.018Z,8.33
2019-02-25T09:36:09.106Z,6.93
2019-02-25T09:38:57.365Z,12.63
2019-02-25T09:41:45.351Z,7.70
2019-02-25T09:44:33.391Z,9.60
2019-02-25T09:47:21.963Z,8.40
2019-02-25T09:50:10.158Z,6.43
2019-02-25T09:52:58.895Z,9.63
2019-02-25T09:55:46.900Z,7.23
2019-02-25T09:58:34.991Z,6.17
2019-02-25T10:01:23.139Z,6.47
2019-02-25T10:04:11.132Z,5.17
2019-02-25T10:07:02.383Z,7.43
2019-02-25T10:09:49.848Z,6.97
2019-02-25T10:12:37.586Z,8.17
2019-02-25T10:15:25.667Z,7.20
2019-02-25T10:18:14.178Z,7.07
2019-02-25T10:21:02.678Z,4.77
2019-02-25T10:23:50.468Z,4.53
2019-02-25T10:26:38.499Z,5.17
2019-02-25T10:29:27.095Z,5.87
2019-02-25T10:32:15.298Z,6.90
2019-02-25T10:35:03.378Z,8.90
2019-02-25T10:37:51.270Z,7.07
2019-02-25T10:40:39.801Z,10.17
2019-02-25T10:43:29.562Z,6.97
2019-02-25T10:46:17.700Z,5.73
2019-02-25T10:49:11.599Z,7.43
2019-02-25T10:51:55.897Z,7.57
2019-02-25T10:54:44.467Z,6.63
2019-02-25T10:57:32.244Z,6.53
2019-02-25T11:03:13.481Z,6.20
2019-02-25T11:06:03.313Z,8.70
2019-02-25T11:11:55.404Z,9.97
2019-02-25T11:14:43.487Z,7.93
2019-02-25T11:17:31.280Z,6.03
2019-02-25T11:20:19.578Z,6.90
2019-02-25T11:23:07.693Z,5.50
2019-02-25T11:25:56.293Z,6.07
2019-02-25T11:28:45.787Z,7.17
2019-02-25T11:31:33.909Z,6.37
2019-02-25T11:34:22.900Z,4.90
2019-02-25T11:37:11.518Z,3.80
2019-02-25T11:40:01.870Z,4.53
2019-02-25T11:42:50.236Z,4.07
2019-02-25T11:45:38.473Z,8.57
2019-02-25T11:48:26.460Z,7.57
2019-02-25T11:51:14.996Z,3.60
2019-02-25T11:54:03.415Z,5.57
2019-02-25T11:56:51.794Z,6.43
2019-02-25T11:59:40.151Z,8.37
2019-02-25T12:02:29.376Z,6.07
2019-02-25T12:05:17.182Z,4.37
2019-02-25T12:08:05.634Z,4.97
2019-02-25T12:10:54.243Z,6.03
2019-02-25T12:13:42.329Z,8.17
2019-02-25T12:16:30.256Z,9.20
2019-02-25T12:19:18.326Z,6.70
2019-02-25T12:22:06.305Z,8.77
2019-02-25T12:24:54.386Z,5.73
2019-02-25T12:27:42.657Z,4.40
2019-02-25T12:30:31.152Z,6.03
2019-02-25T12:33:19.727Z,7.10
2019-02-25T12:36:07.702Z,4.20
2019-02-25T12:38:56.476Z,5.73
2019-02-25T12:41:44.301Z,8.73
2019-02-25T12:44:32.962Z,7.83
2019-02-25T12:47:20.710Z,5.27
2019-02-25T12:50:09.218Z,5.00
2019-02-25T12:52:57.368Z,3.57
2019-02-25T12:55:45.375Z,5.33
2019-02-25T12:58:33.214Z,3.87
2019-02-25T13:01:21.254Z,2.30
2019-02-25T13:04:09.646Z,5.63
2019-02-25T13:06:57.880Z,8.17
2019-02-25T13:09:46.566Z,5.37
2019-02-25T13:12:35.231Z,6.97
2019-02-25T13:15:23.225Z,7.73
2019-02-25T13:18:11.918Z,7.07
2019-02-25T13:21:00.005Z,5.00
2019-02-25T13:23:47.999Z,4.97
2019-02-25T13:26:36.611Z,5.40
2019-02-25T13:29:25.956Z,3.43
2019-02-25T13:32:14.483Z,4.47
2019-02-25T13:35:02.949Z,6.87
2019-02-25T13:37:50.764Z,6.47
2019-02-25T13:40:38.989Z,7.03
2019-02-25T13:43:27.613Z,5.03
2019-02-25T13:46:15.867Z,4.03
2019-02-25T13:49:03.739Z,4.43
2019-02-25T13:51:52.186Z,4.33
2019-02-25T13:54:40.335Z,5.33
2019-02-25T13:57:28.646Z,5.27
2019-02-25T14:00:16.853Z,3.73
2019-02-25T14:03:05.374Z,4.47
2019-02-25T14:05:53.615Z,4.17
2019-02-25T14:08:41.599Z,4.43
2019-02-25T14:11:29.701Z,3.63
2019-02-25T14:14:17.941Z,4.57
2019-02-25T14:17:06.129Z,3.83
2019-02-25T14:19:54.206Z,3.87
2019-02-25T14:22:41.964Z,3.67
2019-02-25T14:25:30.034Z,6.40
2019-02-25T14:28:18.433Z,3.70
2019-02-25T14:31:06.682Z,7.13
2019-02-25T14:33:55.023Z,3.87
2019-02-25T14:36:42.652Z,4.50
2019-02-25T14:39:32.714Z,2.77
2019-02-25T14:42:25.718Z,2.37
2019-02-25T14:45:11.228Z,2.43
2019-02-25T14:47:59.880Z,2.13
2019-02-25T14:50:49.309Z,2.30
2019-02-25T14:53:37.472Z,1.80
2019-02-25T14:56:25.931Z,3.30
2019-02-25T14:59:15.612Z,3.77
2019-02-25T15:02:06.330Z,2.07
2019-02-25T15:04:55.000Z,2.70
2019-02-25T15:07:44.644Z,2.57
2019-02-25T15:10:34.002Z,5.30
2019-02-25T15:13:24.244Z,3.37
2019-02-25T15:16:12.171Z,4.73
2019-02-25T15:19:00.627Z,2.63
2019-02-25T15:21:50.125Z,3.13
2019-02-25T15:24:39.097Z,2.30
2019-02-25T15:27:28.160Z,3.07
2019-02-25T15:30:16.990Z,1.90
2019-02-25T15:33:06.578Z,3.23
2019-02-25T15:35:54.738Z,2.53
2019-02-25T15:38:43.395Z,3.33
2019-02-25T15:41:31.874Z,3.07
2019-02-25T15:44:19.787Z,6.67
2019-02-25T15:47:08.612Z,3.53
2019-02-25T15:50:01.470Z,2.80
2019-02-25T15:52:47.913Z,4.37
2019-02-25T15:55:35.854Z,4.67
2019-02-25T15:58:23.860Z,3.97
2019-02-25T16:01:12.658Z,4.23
2019-02-25T16:04:02.461Z,8.43
2019-02-25T16:06:51.291Z,3.30
2019-02-25T16:09:40.857Z,5.87
2019-02-25T16:12:29.668Z,5.00
2019-02-25T16:15:19.571Z,3.43
2019-02-25T16:18:07.548Z,4.03
2019-02-25T16:20:57.511Z,3.63
2019-02-25T16:23:45.701Z,6.23
2019-02-25T16:26:36.042Z,5.57
2019-02-25T16:29:23.972Z,6.00
2019-02-25T16:32:12.518Z,3.37
2019-02-25T16:35:02.685Z,3.13
2019-02-25T16:37:53.088Z,4.20
2019-02-25T16:40:40.877Z,4.60
2019-02-25T16:43:29.001Z,3.27
2019-02-25T16:46:18.440Z,4.00
2019-02-25T16:49:06.597Z,3.87
2019-02-25T16:51:55.589Z,3.73
2019-02-25T16:54:44.855Z,3.70
2019-02-25T16:57:33.278Z,7.43
2019-02-25T17:00:24.825Z,4.63
2019-02-25T17:06:11.642Z,4.67
2019-02-25T17:09:01.103Z,12.40
2019-02-25T17:11:49.828Z,13.87
2019-02-25T17:14:40.478Z,10.00
2019-02-25T17:17:28.167Z,12.37
2019-02-25T17:20:16.485Z,16.10
2019-02-25T17:23:04.853Z,3.67
2019-02-25T17:25:53.353Z,7.37
2019-02-25T17:28:41.672Z,3.50
2019-02-25T17:31:32.253Z,4.13
2019-02-25T17:34:20.985Z,7.13
2019-02-25T17:42:44.815Z,4.53
2019-02-25T17:45:34.579Z,5.27
2019-02-25T17:48:23.818Z,6.80
2019-02-25T17:51:11.633Z,4.83
2019-02-25T17:54:00.744Z,9.03
2019-02-25T17:56:51.382Z,5.53
2019-02-25T17:59:39.289Z,13.47
2019-02-25T18:02:27.482Z,7.03
2019-02-25T18:05:18.540Z,9.20
2019-02-25T18:10:58.635Z,7.07
2019-02-25T18:13:49.020Z,3.60
2019-02-25T18:16:39.090Z,4.33
2019-02-25T18:19:27.170Z,4.27
2019-02-25T18:22:16.726Z,7.53
2019-02-25T18:25:05.531Z,6.37
2019-02-25T18:30:46.424Z,5.83
2019-02-25T18:33:34.495Z,5.70
2019-02-25T18:36:24.511Z,4.20
2019-02-25T18:39:12.852Z,7.17
2019-02-25T18:42:00.916Z,7.03
2019-02-25T18:44:53.538Z,5.90
2019-02-25T18:50:33.631Z,4.43
2019-02-25T18:53:22.599Z,5.07
2019-02-25T18:56:14.136Z,4.50
2019-02-25T18:59:08.693Z,4.13
2019-02-25T19:01:51.994Z,4.77
2019-02-25T19:04:41.793Z,5.53
2019-02-25T19:07:31.467Z,4.23
2019-02-25T19:10:24.289Z,6.30
2019-02-25T19:13:13.336Z,3.77
2019-02-25T19:16:02.616Z,6.03
2019-02-25T19:18:51.300Z,5.97
2019-02-25T19:21:41.327Z,7.33
2019-02-25T19:24:33.250Z,5.13
2019-02-25T19:27:22.583Z,7.53
2019-02-25T19:30:11.652Z,8.80
2019-02-25T19:33:11.255Z,6.80
2019-02-25T19:35:58.153Z,3.67
2019-02-25T19:38:46.398Z,4.77
2019-02-25T19:41:35.615Z,5.90
2019-02-25T19:44:23.956Z,5.93
2019-02-25T19:47:14.049Z,9.00
2019-02-25T19:50:02.835Z,8.77
2019-02-25T19:52:51.194Z,7.20
2019-02-25T19:55:40.753Z,6.20
2019-02-25T19:58:33.331Z,9.03
2019-02-25T20:01:19.330Z,6.77
2019-02-25T20:06:54.395Z,6.20
2019-02-25T20:09:42.658Z,6.50
2019-02-25T20:12:35.719Z,5.20
2019-02-25T20:15:26.055Z,4.83
2019-02-25T20:21:12.710Z,5.60
2019-02-25T20:24:01.213Z,6.43
2019-02-25T20:26:52.599Z,7.90
2019-02-25T20:29:40.852Z,6.77
2019-02-25T20:32:29.612Z,4.70
2019-02-25T20:35:19.895Z,7.23
2019-02-25T20:38:08.020Z,6.97
2019-02-25T20:40:57.440Z,5.10
2019-02-25T20:43:47.219Z,5.30
2019-02-25T20:46:35.884Z,9.77
2019-02-25T20:49:26.405Z,8.90
2019-02-25T20:52:16.049Z,7.70
2019-02-25T20:55:05.948Z,8.07
2019-02-25T20:57:54.944Z,19.30
2019-02-25T21:00:44.200Z,6.67
2019-02-25T21:03:33.605Z,6.93
2019-02-25T21:09:09.296Z,9.60
2019-02-25T21:11:58.269Z,8.90
2019-02-25T21:14:46.533Z,11.37
2019-02-25T21:17:35.512Z,8.23
2019-02-25T21:20:26.103Z,9.37
2019-02-25T21:23:15.425Z,7.07
2019-02-25T21:26:06.280Z,9.63
2019-02-25T21:28:55.990Z,10.03
2019-02-25T21:31:47.250Z,8.17
2019-02-25T21:34:34.020Z,12.13
2019-02-25T21:37:23.388Z,11.40
2019-02-25T21:40:12.690Z,10.27
2019-02-25T21:43:01.042Z,11.13
2019-02-25T21:48:41.582Z,6.63
2019-02-25T21:54:15.697Z,8.43
2019-02-25T21:57:05.465Z,9.03
2019-02-25T21:59:56.298Z,10.40
2019-02-25T22:02:45.861Z,10.63
2019-02-25T22:05:35.356Z,7.93
2019-02-25T22:08:26.244Z,10.90
2019-02-25T22:11:16.848Z,14.17
2019-02-25T22:14:04.367Z,11.77
2019-02-25T22:16:54.448Z,10.23
2019-02-25T22:19:43.708Z,8.37
2019-02-25T22:22:33.234Z,10.93
2019-02-25T22:25:22.076Z,11.63
2019-02-25T22:28:10.116Z,15.37
2019-02-25T22:30:58.083Z,12.60
2019-02-25T22:33:46.098Z,15.20
2019-02-25T22:36:34.007Z,16.20
2019-02-25T22:39:25.777Z,17.83
2019-02-25T22:42:16.111Z,17.80
2019-02-25T22:45:04.363Z,15.33
2019-02-25T22:47:52.756Z,17.70
2019-02-25T22:50:41.497Z,17.87
2019-02-25T22:53:29.635Z,18.20
2019-02-25T22:56:18.340Z,12.13
2019-02-25T22:59:08.036Z,8.33
2019-02-25T23:01:56.044Z,10.60
2019-02-25T23:04:46.945Z,9.73
2019-02-25T23:07:38.805Z,11.27
2019-02-25T23:10:24.830Z,11.43
2019-02-25T23:13:13.147Z,11.50
2019-02-25T23:16:01.656Z,9.07
2019-02-25T23:18:49.492Z,9.80
2019-02-25T23:21:38.379Z,10.43
2019-02-25T23:24:30.033Z,10.73
2019-02-25T23:27:17.162Z,9.63
2019-02-25T23:30:08.594Z,9.63
2019-02-25T23:32:56.829Z,10.27
2019-02-25T23:35:46.582Z,11.67
2019-02-25T23:38:34.490Z,8.47
2019-02-25T23:41:22.835Z,10.23
2019-02-25T23:44:13.233Z,10.33
2019-02-25T23:47:02.458Z,10.40
2019-02-25T23:49:52.351Z,9.67
2019-02-25T23:52:40.901Z,10.50
2019-02-25T23:55:29.850Z,10.13
2019-02-25T23:58:20.215Z,11.53
